Time,TemperatureF,DewpointF,PressureIn,WindDirection,WindDirectionDegrees,WindSpeedMPH,WindSpeedGustMPH,Humidity,HourlyPrecipIn,Conditions,Clouds,dailyrainin,SoftwareType,DateUTC
2013-10-13 00:01:00,54.3,54.0,30.05,ESE,112,0.0,-999.0,99,-99.99,,,0.00,Acu-Link.com,2013-10-13 04:01:00,
2013-10-13 00:16:00,54.0,53.7,30.06,NW,315,0.0,-999.0,99,-99.99,,,0.00,Acu-Link.com,2013-10-13 04:16:00,
2013-10-13 00:31:00,54.0,53.7,30.05,SW,225,0.0,-999.0,99,-99.99,,,0.00,Acu-Link.com,2013-10-13 04:31:00,
2013-10-13 00:46:00,53.6,53.3,30.06,SE,135,0.0,-999.0,99,-99.99,,,0.00,Acu-Link.com,2013-10-13 04:46:00,
2013-10-13 01:02:00,53.2,52.9,30.06,East,90,0.0,-999.0,99,-99.99,,,0.00,Acu-Link.com,2013-10-13 05:02:00,
2013-10-13 01:17:00,53.4,53.1,30.05,SW,225,0.0,-999.0,99,-99.99,,,0.00,Acu-Link.com,2013-10-13 05:17:00,
2013-10-13 01:32:00,52.9,52.6,30.05,West,270,0.0,-999.0,99,-99.99,,,0.00,Acu-Link.com,2013-10-13 05:32:00,
2013-10-13 01:47:00,52.9,52.6,30.06,SW,225,0.0,-999.0,99,-99.99,,,0.00,Acu-Link.com,2013-10-13 05:47:00,
2013-10-13 02:03:00,52.7,52.4,30.05,South,180,0.0,-999.0,99,-99.99,,,0.00,Acu-Link.com,2013-10-13 06:03:00,
2013-10-13 02:18:00,52.5,52.2,30.05,ESE,112,0.0,-999.0,99,-99.99,,,0.00,Acu-Link.com,2013-10-13 06:18:00,
2013-10-13 02:33:00,52.2,51.9,30.06,SSW,202,0.0,-999.0,99,-99.99,,,0.00,Acu-Link.com,2013-10-13 06:33:00,
2013-10-13 02:48:00,52.0,51.7,30.06,East,90,0.0,-999.0,99,-99.99,,,0.00,Acu-Link.com,2013-10-13 06:48:00,
2013-10-13 03:03:00,52.3,52.0,30.06,SW,225,0.0,-999.0,99,-99.99,,,0.00,Acu-Link.com,2013-10-13 07:03:00,
2013-10-13 03:19:00,52.3,52.0,30.06,SW,225,0.0,-999.0,99,-99.99,,,0.00,Acu-Link.com,2013-10-13 07:19:00,
2013-10-13 03:35:00,52.2,51.9,30.07,SSW,202,0.0,-999.0,99,-99.99,,,0.00,Acu-Link.com,2013-10-13 07:35:00,
2013-10-13 03:50:00,52.0,51.7,30.07,ESE,112,0.0,-999.0,99,-99.99,,,0.00,Acu-Link.com,2013-10-13 07:50:00,
2013-10-13 04:05:00,52.0,51.7,30.07,ESE,112,0.0,-999.0,99,-99.99,,,0.00,Acu-Link.com,2013-10-13 08:05:00,
2013-10-13 04:20:00,51.8,51.5,30.07,North,0,0.0,-999.0,99,-99.99,,,0.00,Acu-Link.com,2013-10-13 08:20:00,
2013-10-13 04:36:00,51.6,51.3,30.07,NNE,22,0.0,-999.0,99,-99.99,,,0.00,Acu-Link.com,2013-10-13 08:36:00,
2013-10-13 04:51:00,51.6,51.3,30.06,NNE,22,0.0,-999.0,99,-99.99,,,0.00,Acu-Link.com,2013-10-13 08:51:00,
2013-10-13 05:06:00,51.4,51.1,30.06,South,180,0.0,-999.0,99,-99.99,,,0.00,Acu-Link.com,2013-10-13 09:06:00,
2013-10-13 05:22:00,50.7,50.4,30.06,ESE,112,0.0,-999.0,99,-99.99,,,0.00,Acu-Link.com,2013-10-13 09:22:00,
2013-10-13 05:37:00,50.5,50.2,30.06,West,270,0.0,-999.0,99,-99.99,,,0.00,Acu-Link.com,2013-10-13 09:37:00,
2013-10-13 05:52:00,50.4,50.1,30.07,SW,225,0.0,-999.0,99,-99.99,,,0.00,Acu-Link.com,2013-10-13 09:52:00,
2013-10-13 06:07:00,50.2,49.9,30.07,ESE,112,0.0,-999.0,99,-99.99,,,0.00,Acu-Link.com,2013-10-13 10:07:00,
2013-10-13 06:22:00,50.0,49.7,30.08,South,180,0.0,-999.0,99,-99.99,,,0.00,Acu-Link.com,2013-10-13 10:22:00,
2013-10-13 06:37:00,50.0,49.7,30.08,NE,45,0.0,-999.0,99,-99.99,,,0.00,Acu-Link.com,2013-10-13 10:37:00,
2013-10-13 06:52:00,50.4,50.1,30.09,SSW,202,0.0,-999.0,99,-99.99,,,0.00,Acu-Link.com,2013-10-13 10:52:00,
2013-10-13 07:08:00,50.4,50.1,30.10,SW,225,0.0,-999.0,99,-99.99,,,0.00,Acu-Link.com,2013-10-13 11:08:00,
2013-10-13 07:23:00,50.2,49.9,30.10,SE,135,0.0,-999.0,99,-99.99,,,0.00,Acu-Link.com,2013-10-13 11:23:00,
2013-10-13 07:38:00,50.2,49.9,30.10,SW,225,0.0,-999.0,99,-99.99,,,0.00,Acu-Link.com,2013-10-13 11:38:00,
2013-10-13 07:53:00,50.2,49.9,30.10,SW,225,0.0,-999.0,99,-99.99,,,0.00,Acu-Link.com,2013-10-13 11:53:00,
2013-10-13 08:09:00,50.2,49.9,30.11,ESE,112,0.0,-999.0,99,-99.99,,,0.00,Acu-Link.com,2013-10-13 12:09:00,
2013-10-13 08:24:00,50.4,50.1,30.12,East,90,0.0,-999.0,99,-99.99,,,0.00,Acu-Link.com,2013-10-13 12:24:00,
2013-10-13 08:39:00,50.9,50.6,30.11,South,180,0.0,-999.0,99,-99.99,,,0.00,Acu-Link.com,2013-10-13 12:39:00,
2013-10-13 08:55:00,51.6,51.3,30.12,SSE,157,0.0,-999.0,99,-99.99,,,0.00,Acu-Link.com,2013-10-13 12:55:00,
2013-10-13 09:10:00,52.5,52.2,30.13,SSE,157,0.0,-999.0,99,-99.99,,,0.00,Acu-Link.com,2013-10-13 13:10:00,
2013-10-13 09:25:00,53.2,52.9,30.13,ESE,112,0.0,-999.0,99,-99.99,,,0.00,Acu-Link.com,2013-10-13 13:25:00,
2013-10-13 09:40:00,54.3,54.0,30.14,SSW,202,0.0,-999.0,99,-99.99,,,0.00,Acu-Link.com,2013-10-13 13:40:00,
2013-10-13 09:56:00,55.2,54.6,30.13,South,180,0.0,-999.0,98,-99.99,,,0.00,Acu-Link.com,2013-10-13 13:56:00,
2013-10-13 10:11:00,55.9,55.1,30.14,ESE,112,0.0,-999.0,97,-99.99,,,0.00,Acu-Link.com,2013-10-13 14:11:00,
2013-10-13 10:26:00,56.8,55.7,30.14,SE,135,0.0,-999.0,96,-99.99,,,0.00,Acu-Link.com,2013-10-13 14:26:00,
2013-10-13 10:42:00,57.6,56.5,30.14,ESE,112,0.0,-999.0,96,-99.99,,,0.00,Acu-Link.com,2013-10-13 14:42:00,
2013-10-13 10:57:00,58.3,57.2,30.14,SSW,202,0.0,-999.0,96,-99.99,,,0.00,Acu-Link.com,2013-10-13 14:57:00,
2013-10-13 11:12:00,61.0,58.4,30.14,SSW,202,1.7,-999.0,91,-99.99,,,0.00,Acu-Link.com,2013-10-13 15:12:00,
2013-10-13 11:27:00,61.5,57.9,30.14,West,270,1.1,-999.0,88,-99.99,,,0.00,Acu-Link.com,2013-10-13 15:27:00,
2013-10-13 11:42:00,62.2,59.2,30.14,NE,45,0.0,-999.0,90,-99.99,,,0.00,Acu-Link.com,2013-10-13 15:42:00,
2013-10-13 11:58:00,63.5,59.6,30.14,SSW,202,0.0,-999.0,87,-99.99,,,0.00,Acu-Link.com,2013-10-13 15:58:00,
2013-10-13 12:13:00,64.8,60.5,30.13,WSW,247,0.0,-999.0,86,-99.99,,,0.00,Acu-Link.com,2013-10-13 16:13:00,
2013-10-13 12:28:00,66.4,61.1,30.13,NE,45,1.7,-999.0,83,-99.99,,,0.00,Acu-Link.com,2013-10-13 16:28:00,
2013-10-13 12:43:00,68.2,61.8,30.12,NNE,22,2.7,-999.0,80,-99.99,,,0.00,Acu-Link.com,2013-10-13 16:43:00,
2013-10-13 12:59:00,69.6,60.9,30.12,SW,225,2.2,-999.0,74,-99.99,,,0.00,Acu-Link.com,2013-10-13 16:59:00,
2013-10-13 13:14:00,69.8,61.5,30.12,West,270,1.1,-999.0,75,-99.99,,,0.00,Acu-Link.com,2013-10-13 17:14:00,
2013-10-13 13:29:00,70.9,61.4,30.11,East,90,1.1,-999.0,72,-99.99,,,0.00,Acu-Link.com,2013-10-13 17:29:00,
2013-10-13 13:45:00,71.2,62.5,30.11,NNE,22,1.7,-999.0,74,-99.99,,,0.00,Acu-Link.com,2013-10-13 17:45:00,
2013-10-13 14:00:00,70.7,62.4,30.11,ENE,67,1.7,-999.0,75,-99.99,,,0.00,Acu-Link.com,2013-10-13 18:00:00,
2013-10-13 14:15:00,70.7,62.4,30.10,ESE,112,2.2,-999.0,75,-99.99,,,0.00,Acu-Link.com,2013-10-13 18:15:00,
2013-10-13 14:30:00,70.7,62.8,30.09,NE,45,0.0,-999.0,76,-99.99,,,0.00,Acu-Link.com,2013-10-13 18:30:00,
2013-10-13 14:46:00,70.9,63.3,30.09,SE,135,0.0,-999.0,77,-99.99,,,0.00,Acu-Link.com,2013-10-13 18:46:00,
2013-10-13 15:01:00,71.4,62.3,30.09,NE,45,0.0,-999.0,73,-99.99,,,0.00,Acu-Link.com,2013-10-13 19:01:00,
2013-10-13 15:16:00,72.0,62.9,30.08,SW,225,2.2,-999.0,73,-99.99,,,0.00,Acu-Link.com,2013-10-13 19:16:00,
2013-10-13 15:31:00,72.0,63.2,30.07,SSE,157,0.0,-999.0,74,-99.99,,,0.00,Acu-Link.com,2013-10-13 19:31:00,
2013-10-13 15:47:00,70.2,63.0,30.07,ENE,67,1.7,-999.0,78,-99.99,,,0.00,Acu-Link.com,2013-10-13 19:47:00,
2013-10-13 16:02:00,70.0,62.4,30.07,ENE,67,0.0,-999.0,77,-99.99,,,0.00,Acu-Link.com,2013-10-13 20:02:00,
2013-10-13 16:17:00,70.0,61.7,30.07,NW,315,0.0,-999.0,75,-99.99,,,0.00,Acu-Link.com,2013-10-13 20:17:00,
2013-10-13 16:32:00,70.7,62.8,30.07,WNW,292,2.2,-999.0,76,-99.99,,,0.00,Acu-Link.com,2013-10-13 20:32:00,
2013-10-13 16:47:00,70.2,62.3,30.07,WNW,292,1.7,-999.0,76,-99.99,,,0.00,Acu-Link.com,2013-10-13 20:47:00,
2013-10-13 17:03:00,69.6,62.4,30.07,West,270,0.0,-999.0,78,-99.99,,,0.00,Acu-Link.com,2013-10-13 21:03:00,
2013-10-13 17:18:00,69.4,62.6,30.07,WSW,247,0.0,-999.0,79,-99.99,,,0.00,Acu-Link.com,2013-10-13 21:18:00,
2013-10-13 17:33:00,69.3,62.5,30.08,SW,225,0.0,-999.0,79,-99.99,,,0.00,Acu-Link.com,2013-10-13 21:33:00,
2013-10-13 17:49:00,68.9,63.2,30.07,ESE,112,0.0,-999.0,82,-99.99,,,0.00,Acu-Link.com,2013-10-13 21:49:00,
2013-10-13 18:04:00,68.7,63.0,30.08,West,270,0.0,-999.0,82,-99.99,,,0.00,Acu-Link.com,2013-10-13 22:04:00,
2013-10-13 18:19:00,68.2,63.2,30.08,WNW,292,0.0,-999.0,84,-99.99,,,0.00,Acu-Link.com,2013-10-13 22:19:00,
2013-10-13 18:34:00,67.6,62.6,30.07,East,90,0.0,-999.0,84,-99.99,,,0.00,Acu-Link.com,2013-10-13 22:34:00,
2013-10-13 18:49:00,67.3,62.6,30.08,West,270,0.0,-999.0,85,-99.99,,,0.00,Acu-Link.com,2013-10-13 22:49:00,
2013-10-13 19:04:00,66.7,62.4,30.08,West,270,0.0,-999.0,86,-99.99,,,0.00,Acu-Link.com,2013-10-13 23:04:00,
2013-10-13 19:19:00,66.0,62.7,30.09,West,270,0.0,-999.0,89,-99.99,,,0.00,Acu-Link.com,2013-10-13 23:19:00,
2013-10-13 19:35:00,65.3,62.0,30.09,South,180,0.0,-999.0,89,-99.99,,,0.00,Acu-Link.com,2013-10-13 23:35:00,
2013-10-13 19:50:00,65.1,61.8,30.09,ESE,112,0.0,-999.0,89,-99.99,,,0.00,Acu-Link.com,2013-10-13 23:50:00,
2013-10-13 20:05:00,64.6,61.6,30.10,West,270,0.0,-999.0,90,-99.99,,,0.00,Acu-Link.com,2013-10-14 00:05:00,
2013-10-13 20:20:00,64.0,61.3,30.10,West,270,0.0,-999.0,91,-99.99,,,0.00,Acu-Link.com,2013-10-14 00:20:00,
2013-10-13 20:36:00,63.9,61.5,30.10,West,270,0.0,-999.0,92,-99.99,,,0.00,Acu-Link.com,2013-10-14 00:36:00,
2013-10-13 20:51:00,63.5,61.4,30.11,SSW,202,0.0,-999.0,93,-99.99,,,0.00,Acu-Link.com,2013-10-14 00:51:00,
2013-10-13 21:06:00,63.3,61.5,30.11,South,180,0.0,-999.0,94,-99.99,,,0.00,Acu-Link.com,2013-10-14 01:06:00,
2013-10-13 21:22:00,63.1,61.6,30.12,South,180,0.0,-999.0,95,-99.99,,,0.00,Acu-Link.com,2013-10-14 01:22:00,
2013-10-13 21:37:00,62.6,61.4,30.12,NNE,22,0.0,-999.0,96,-99.99,,,0.00,Acu-Link.com,2013-10-14 01:37:00,
2013-10-13 21:52:00,62.2,61.0,30.13,SW,225,0.0,-999.0,96,-99.99,,,0.00,Acu-Link.com,2013-10-14 01:52:00,
2013-10-13 22:07:00,61.9,61.0,30.13,South,180,0.0,-999.0,97,-99.99,,,0.00,Acu-Link.com,2013-10-14 02:07:00,
2013-10-13 22:22:00,61.3,60.4,30.13,South,180,0.0,-999.0,97,-99.99,,,0.00,Acu-Link.com,2013-10-14 02:22:00,
2013-10-13 22:38:00,61.0,60.4,30.13,West,270,0.0,-999.0,98,-99.99,,,0.00,Acu-Link.com,2013-10-14 02:38:00,
2013-10-13 22:53:00,60.8,60.2,30.13,East,90,0.0,-999.0,98,-99.99,,,0.00,Acu-Link.com,2013-10-14 02:53:00,
2013-10-13 23:08:00,60.6,60.3,30.13,WSW,247,0.0,-999.0,99,-99.99,,,0.00,Acu-Link.com,2013-10-14 03:08:00,
2013-10-13 23:24:00,60.3,60.0,30.12,SSW,202,0.0,-999.0,99,-99.99,,,0.00,Acu-Link.com,2013-10-14 03:24:00,
2013-10-13 23:39:00,59.7,59.4,30.13,SSW,202,0.0,-999.0,99,-99.99,,,0.00,Acu-Link.com,2013-10-14 03:39:00,
2013-10-13 23:54:00,59.4,59.1,30.12,ENE,67,0.0,-999.0,99,-99.99,,,0.00,Acu-Link.com,2013-10-14 03:54:00,